Aérodrome :
LOGIN :

S'inscrire | Disclaimer

   EN    FR    IT 

 










Légende :    VFR   VFR Marginal   IFR   IFR Intensif   IFR Très Intensif
Visi : 
Plafond : 
>= 8 km
>= 3000ft
5 à 8 km
1000 à 3000 ft
1500m à 5 km
500 à 1000 ft
800 à 1500m
200 à 500 ft
< 800m
< 200 ft
Symboles :   Orages  Brouillard  Fortes neiges  Fortes précipitations  Vent > 20 kt
SIGMETs :   Divers  Orages  Givrage  Turbulence  Onde Orograph.  Cendres Volcan.






- Altitude de l'aérodrome : 170 ft
- Code IATA : KRP


EKKA - Karup

DERNIER METAR :
  • 191450Z AUTO 34004KT 310V020 9999 NCD 18/14 Q1023

METARs EXPIRÉS :
  • 191420Z AUTO 33003KT 9999 NCD 18/14 Q1023
  • 191350Z AUTO VRB02KT 9999 FEW017/// 18/14 Q1024
  • 191320Z AUTO 30002KT 9999 FEW016/// 18/14 Q1024
  • 191250Z AUTO VRB01KT 9999 FEW012/// 17/13 Q1024
  • 191220Z 32002KT 9999 SCT012 16/13 Q1024

TAF TAF EKKA
Valide du 19 à 15h jusqu'au 20 à 15h UTC


191404Z 1915/2015 VRB03KT 9999 FEW020
TEMPO 1919/1921 3000 MIFG
BECMG 1921/1923 2000 BCFG MIFG
BECMG 1923/2001 0100 FG VV001
TEMPO 2007/2009 1200 BR BKN002
BECMG 2009/2011 9999 NSW BKN005
BECMG 2011/2013 FEW010



MET'MAP, la Météo Aéronautique d'un coup d'oeil ! - Copyright ORBIFLY Décembre 2007 - Disclaimer

ORBIFLY MET'MAP TEAM :

Programmation & Développement : Alexandra Zaïnal
Sur une idée originale de : Baudouin d'Aumeries
Assistance à la programmation : Marc-Olivier Méhu
Soutien technique & logistique : Manuel Goepfert

Contact : metmap@orbifly.com




SOURCES & CREDITS :

   NOAA